Latest Weather Observations for Coonawarra

IDS60801

Issued at 8:11 pm CDT Sunday 24 January 2021 (issued every 10 minutes, with the page automatically refreshed every 10 minutes)

About weather observations | Map of weather stations | Latest weather observations for SA | Other Formats
Station Details ID: 026091 Name: COONAWARRA Lat: -37.29 Lon: 140.83 Height: 57.0 m
Data from the previous 72 hours. | See also: Recent months at Coonawarra
Date/Time
CDT
Temp
°C
App
Temp
°C
Dew
Point
°C
Rel
Hum
%
Delta-T
°C
Wind Press
QNH
hPa
Press
MSL
hPa
Rain since
9am
mm
Dir  Spd
km/h
Gust
km/h
Spd
kts
Gust
kts
24/08:00pm 35.1 30.1 1.2 12 17.2 WSW 17 24 9 13 1001.1 1001.0 0.0
24/07:30pm 37.1 31.3 -1.5 8 19.0 W 19 28 10 15 1000.9 1000.8 0.0
24/07:00pm 38.4 33.3 0.5 9 19.3 WNW 17 20 9 11 1000.6 1000.5 0.0
24/06:30pm 40.1 34.2 -1.1 7 20.8 W 20 32 11 17 1000.4 1000.3 0.0
24/06:00pm 41.2 35.9 -0.7 7 21.4 NNW 17 28 9 15 1000.5 1000.4 0.0
24/05:30pm 41.5 35.5 -2.9 6 22.0 N 19 30 10 16 1000.8 1000.7 0.0
24/05:00pm 41.8 35.8 -1.9 6 21.9 NNW 20 37 11 20 1001.3 1001.2 0.0
24/04:30pm 40.3 35.8 0.0 8 20.7 NNW 13 20 7 11 1001.8 1001.7 0.0
24/04:00pm 40.7 34.8 -1.9 7 21.2 N 19 32 10 17 1002.3 1002.2 0.0
24/03:30pm 40.6 33.7 -2.8 6 21.4 NNW 24 35 13 19 1002.9 1002.8 0.0
24/03:00pm 41.8 36.0 -0.3 7 21.7 NNW 20 32 11 17 1003.4 1003.3 0.0
24/02:30pm 40.9 35.4 0.3 8 21.0 N 19 30 10 16 1004.0 1003.9 0.0
24/02:00pm 40.4 34.3 0.6 8 20.5 NNW 22 37 12 20 1004.6 1004.5 0.0
24/01:30pm 39.3 33.2 0.6 9 19.9 N 22 35 12 19 1005.2 1005.1 0.0
24/01:00pm 39.3 33.2 2.9 10 19.3 N 24 35 13 19 1005.8 1005.6 0.0
24/12:30pm 37.7 32.9 5.8 14 17.6 N 20 32 11 17 1006.4 1006.2 0.0
24/12:00pm 35.4 31.2 7.3 17 15.7 N 19 28 10 15 1006.9 1006.7 0.0
24/11:30am 34.9 30.4 6.9 17 15.5 NNE 20 32 11 17 1007.2 1007.0 0.0
24/11:00am 34.0 29.4 8.2 20 14.5 NNE 22 32 12 17 1007.4 1007.2 0.0
24/10:30am 33.3 30.0 9.5 23 13.6 NNE 17 28 9 15 1007.8 1007.6 0.0
24/10:00am 31.7 29.7 11.6 29 11.8 NNE 13 19 7 10 1008.0 1007.8 0.0
24/09:30am 29.2 27.9 11.4 33 10.3 NNE 9 13 5 7 1008.4 1008.2 0.0
24/09:00am 27.1 26.4 12.1 39 8.7 NE 7 11 4 6 1008.5 1008.3 0.0
24/08:30am 25.7 24.7 12.2 43 7.8 NNE 9 15 5 8 1008.5 1008.3 0.0
24/08:00am 23.8 22.8 12.3 48 6.6 NE 9 13 5 7 1008.4 1008.2 0.0
24/07:30am 22.3 22.3 13.5 57 5.1 NNE 6 7 3 4 1008.3 1008.1 0.0
24/07:00am 21.9 20.2 12.4 54 5.4 NE 13 15 7 8 1007.8 1007.6 0.0
24/06:30am 19.4 18.8 13.5 68 3.4 NE 9 11 5 6 1007.8 1007.6 0.0
24/06:00am 17.4 16.8 13.5 78 2.2 NNE 9 13 5 7 1007.5 1007.3 0.0
24/05:30am 16.7 16.3 12.9 78 2.1 NE 7 7 4 4 1007.3 1007.1 0.0
24/05:00am 16.3 16.8 12.9 80 1.9 ENE 2 9 1 5 1007.1 1006.9 0.0
24/04:30am 16.3 17.1 12.7 79 2.0 CALM 0 0 0 0 1007.3 1007.1 0.0
24/04:00am 16.3 16.1 12.9 80 1.9 E 6 7 3 4 1007.3 1007.1 0.0
24/03:30am 16.8 16.5 12.7 77 2.3 E 6 7 3 4 1007.4 1007.2 0.0
24/03:00am 17.9 17.2 13.3 74 2.6 E 9 11 5 6 1007.5 1007.3 0.0
24/02:30am 19.1 18.9 13.5 70 3.2 E 7 9 4 5 1007.8 1007.6 0.0
24/02:00am 19.3 19.1 13.0 67 3.6 ESE 6 7 3 4 1008.1 1007.9 0.0
24/01:30am 20.0 19.7 13.4 65 3.8 ESE 7 9 4 5 1008.4 1008.2 0.0
24/01:00am 19.4 19.0 12.9 66 3.7 ESE 7 9 4 5 1008.7 1008.5 0.0
24/12:30am 19.2 18.8 12.4 64 3.8 ESE 6 7 3 4 1009.2 1009.0 0.0
24/12:00am 19.6 19.2 13.1 66 3.7 E 7 9 4 5 1009.4 1009.2 0.0
 
Date/Time
CDT
Temp
°C
App
Temp
°C
Dew
Point
°C
Rel
Hum
%
Delta-T
°C
Wind Press
QNH
hPa
Press
MSL
hPa
Rain since
9am
mm
Dir  Spd
km/h
Gust
km/h
Spd
kts
Gust
kts
23/11:30pm 21.2 20.2 12.4 57 5.0 E 9 11 5 6 1009.7 1009.5 0.0
23/11:00pm 21.8 20.4 12.1 54 5.5 E 11 13 6 7 1009.8 1009.6 0.0
23/10:30pm 22.2 21.4 12.8 55 5.4 ESE 9 11 5 6 1010.3 1010.1 0.0
23/10:00pm 23.7 22.4 12.6 49 6.4 SE 11 15 6 8 1010.5 1010.3 0.0
23/09:30pm 24.0 23.5 13.8 53 6.0 SE 9 11 5 6 1010.4 1010.2 0.0
23/09:00pm 25.5 24.5 13.4 47 7.1 SSE 11 15 6 8 1010.2 1010.0 0.0
23/08:30pm 26.7 26.2 13.7 44 7.7 S 9 13 5 7 1010.1 1009.9 0.0
23/08:00pm 28.7 27.0 12.5 36 9.5 S 13 19 7 10 1010.0 1009.8 0.0
23/07:30pm 30.1 27.8 10.5 29 11.2 SSW 13 19 7 10 1009.7 1009.5 0.0
23/07:00pm 30.9 27.5 7.8 23 12.7 SSW 15 20 8 11 1009.6 1009.4 0.0
23/06:30pm 31.5 28.0 8.6 24 12.8 SSW 17 22 9 12 1009.3 1009.1 0.0
23/06:00pm 31.8 28.2 8.5 23 13.0 SW 17 26 9 14 1009.2 1009.0 0.0
23/05:30pm 32.3 27.8 8.6 23 13.3 SSW 22 32 12 17 1009.2 1009.0 0.0
23/05:00pm 33.1 29.1 9.2 23 13.6 SSW 20 32 11 17 1009.1 1008.9 0.0
23/04:30pm 33.6 29.9 8.0 20 14.3 SW 17 28 9 15 1009.2 1009.0 0.0
23/04:00pm 33.4 29.9 7.0 19 14.5 WSW 15 26 8 14 1009.3 1009.1 0.0
23/03:30pm 33.0 28.7 7.2 20 14.2 SW 19 26 10 14 1009.6 1009.4 0.0
23/03:00pm 32.7 28.4 6.9 20 14.1 SW 19 32 10 17 1009.9 1009.7 0.0
23/02:30pm 32.6 29.2 7.7 21 13.8 WSW 15 24 8 13 1010.2 1010.0 0.0
23/02:00pm 31.5 27.7 7.4 22 13.2 W 17 28 9 15 1010.5 1010.3 0.0
23/01:30pm 30.7 27.8 8.0 24 12.5 WNW 13 22 7 12 1010.7 1010.5 0.0
23/01:00pm 29.6 27.6 8.6 27 11.6 NW 9 20 5 11 1011.0 1010.8 0.0
23/12:30pm 28.2 26.1 8.2 28 10.9 WNW 9 19 5 10 1011.2 1011.0 0.0
23/12:00pm 26.9 25.3 8.8 32 9.9 WSW 7 13 4 7 1011.6 1011.4 0.0
23/11:30am 26.2 24.6 8.2 32 9.7 NW 6 9 3 5 1011.8 1011.6 0.0
23/11:00am 24.5 22.6 7.4 33 9.0 NW 7 9 4 5 1012.1 1011.9 0.0
23/10:30am 23.0 21.2 7.0 35 8.3 W 6 9 3 5 1012.4 1012.2 0.0
23/10:00am 21.5 20.1 9.6 46 6.4 NNE 7 13 4 7 1012.2 1012.0 0.0
23/09:30am 19.6 19.9 12.1 62 4.2 SW 2 7 1 4 1012.6 1012.4 0.0
23/09:00am 18.4 18.2 12.9 70 3.1 SSE 6 13 3 7 1012.7 1012.5 0.0
23/08:30am 16.3 15.4 12.7 79 2.0 SSE 9 13 5 7 1012.4 1012.2 0.0
23/08:00am 15.0 14.1 12.6 85 1.3 SE 9 15 5 8 1012.1 1011.9 0.0
23/07:30am 13.9 12.9 12.2 89 0.9 ESE 9 13 5 7 1012.0 1011.8 0.0
23/07:00am 11.7 12.1 11.1 96 0.3 CALM 0 0 0 0 1011.8 1011.6 0.0
23/06:30am 9.9 8.6 9.3 96 0.3 SE 6 7 3 4 1011.5 1011.3 0.0
23/06:00am 10.1 10.0 9.3 95 0.4 CALM 0 0 0 0 1011.4 1011.2 0.0
23/05:30am 10.9 9.9 10.3 96 0.3 SSE 6 7 3 4 1011.1 1010.9 0.0
23/05:00am 11.2 10.2 10.2 94 0.5 SSE 6 7 3 4 1010.8 1010.6 0.0
23/04:30am 12.0 10.6 11.0 94 0.5 SSE 9 13 5 7 1010.7 1010.5 0.0
23/04:00am 11.9 10.8 10.7 92 0.6 SSE 7 9 4 5 1010.9 1010.7 0.0
23/03:30am 12.5 11.6 11.4 93 0.6 SSE 7 9 4 5 1010.9 1010.7 0.0
23/03:00am 12.4 11.0 10.9 90 0.8 S 9 9 5 5 1011.4 1011.2 0.0
23/02:30am 12.9 11.6 11.4 91 0.8 SSE 9 11 5 6 1011.5 1011.3 0.0
23/02:00am 13.5 12.3 11.6 88 1.0 SSE 9 11 5 6 1011.8 1011.6 0.0
23/01:30am 14.1 13.4 11.9 86 1.2 SSE 7 9 4 5 1011.8 1011.6 0.0
23/01:00am 14.6 13.5 12.0 84 1.4 SE 9 11 5 6 1012.0 1011.8 0.0
23/12:30am 15.0 13.6 12.1 83 1.6 SE 11 15 6 8 1012.1 1011.9 0.0
23/12:00am 15.4 13.2 12.1 81 1.8 SE 15 20 8 11 1012.3 1012.1 0.0
 
Date/Time
CDT
Temp
°C
App
Temp
°C
Dew
Point
°C
Rel
Hum
%
Delta-T
°C
Wind Press
QNH
hPa
Press
MSL
hPa
Rain since
9am
mm
Dir  Spd
km/h
Gust
km/h
Spd
kts
Gust
kts
22/11:30pm 15.9 14.0 11.9 77 2.2 SSE 13 22 7 12 1012.4 1012.2 0.0
22/11:00pm 16.4 14.5 11.8 74 2.5 SSE 13 20 7 11 1012.5 1012.3 0.0
22/10:30pm 17.1 15.1 11.6 70 3.0 S 13 17 7 9 1012.6 1012.4 0.0
22/10:00pm 17.7 16.4 11.3 66 3.5 S 9 15 5 8 1012.6 1012.4 0.0
22/09:30pm 18.7 16.6 11.0 61 4.2 S 13 17 7 9 1012.3 1012.1 0.0
22/09:00pm 19.7 17.4 10.5 55 5.0 SSW 13 15 7 8 1012.0 1011.8 0.0
22/08:30pm 21.1 18.2 9.8 48 6.1 SSW 15 19 8 10 1011.7 1011.5 0.0
22/08:00pm 22.5 19.3 9.8 44 6.9 SSW 17 22 9 12 1011.3 1011.1 0.0
22/07:30pm 24.2 20.8 9.3 38 8.1 SSW 17 20 9 11 1010.9 1010.7 0.0
22/07:00pm 25.1 21.0 6.4 30 9.7 SW 17 24 9 13 1010.7 1010.5 0.0
22/06:30pm 25.4 21.0 6.7 30 9.8 SW 19 26 10 14 1010.5 1010.3 0.0
22/06:00pm 26.5 22.1 6.5 28 10.5 SW 19 26 10 14 1010.3 1010.1 0.0
22/05:30pm 27.0 22.6 6.5 27 10.8 SSW 19 28 10 15 1010.3 1010.1 0.0
22/05:00pm 28.4 23.9 6.0 24 11.8 SW 19 24 10 13 1010.2 1010.0 0.0
22/04:30pm 27.5 23.1 4.6 23 11.7 SW 17 28 9 15 1010.4 1010.2 0.0
22/04:00pm 27.7 23.8 5.3 24 11.6 SW 15 26 8 14 1010.5 1010.3 0.0
22/03:30pm 28.0 23.6 4.9 23 11.9 WSW 17 26 9 14 1010.6 1010.4 0.0
22/03:00pm 27.4 23.3 6.0 25 11.2 SW 17 26 9 14 1010.8 1010.6 0.0
22/02:30pm 27.0 22.5 5.9 26 11.0 SW 19 32 10 17 1011.1 1010.9 0.0
22/02:00pm 27.2 23.4 7.4 28 10.6 SW 17 26 9 14 1011.1 1010.9 0.0
22/01:30pm 26.4 22.5 7.2 29 10.2 SW 17 26 9 14 1011.5 1011.3 0.0
22/01:00pm 26.1 21.8 7.2 30 10.0 SW 19 26 10 14 1011.7 1011.5 0.0
22/12:30pm 25.9 22.5 9.1 34 9.2 SW 17 28 9 15 1011.6 1011.4 0.0
22/12:00pm 24.3 20.8 8.7 37 8.4 SW 17 28 9 15 1012.0 1011.8 0.0
22/11:30am 23.1 20.1 7.9 37 8.0 WSW 13 24 7 13 1012.1 1011.9 0.0
22/11:00am 22.2 19.8 9.9 45 6.7 SW 13 22 7 12 1012.3 1012.1 0.0
22/10:30am 20.5 17.8 10.2 51 5.6 SW 15 24 8 13 1012.4 1012.2 0.0
22/10:00am 18.0 17.3 12.0 68 3.3 W 7 13 4 7 1012.2 1012.0 0.0
22/09:30am 16.3 15.4 12.5 78 2.1 WSW 9 13 5 7 1012.0 1011.8 0.0
22/09:00am 14.7 14.0 13.3 91 0.8 SW 9 15 5 8 1012.1 1011.9 0.0
22/08:30am 13.1 12.6 12.7 97 0.2 WSW 7 13 4 7 1011.8 1011.6 0.0
22/08:00am 12.5 11.2 12.5 100 0.0 SW 11 15 6 8 1011.8 1011.6 0.0
22/07:30am 12.6 11.7 12.6 100 0.0 SW 9 13 5 7 1011.5 1011.3 0.0
22/07:00am 12.4 11.8 12.4 100 0.0 SW 7 9 4 5 1010.9 1010.7 0.0
22/06:30am 12.4 11.8 12.2 99 0.1 SW 7 11 4 6 1010.8 1010.6 0.0
22/06:00am 12.4 11.8 12.2 99 0.1 SSW 7 11 4 6 1010.3 1010.1 0.0
22/05:30am 12.1 11.0 11.9 99 0.1 SSW 9 13 5 7 1010.3 1010.1 0.0
22/05:00am 11.7 10.5 11.5 99 0.1 SSW 9 13 5 7 1010.1 1009.9 0.0
22/04:30am 11.4 10.4 11.0 97 0.2 SW 7 9 4 5 1010.1 1009.9 0.0
22/04:00am 11.1 11.2 10.3 95 0.4 CALM 0 0 0 0 1009.9 1009.7 0.0
22/03:30am 10.3 9.1 9.5 95 0.4 SW 6 7 3 4 1009.7 1009.5 0.0
22/03:00am 8.5 7.8 6.8 89 0.8 CALM 0 0 0 0 1009.7 1009.5 0.0
22/02:30am 8.6 6.8 7.3 91 0.6 SSW 6 7 3 4 1009.5 1009.3 0.0
22/02:00am 9.6 7.7 7.7 88 0.9 SSW 7 11 4 6 1009.9 1009.7 0.0
22/01:30am 8.7 8.0 6.8 88 0.9 CALM 0 2 0 1 1010.0 1009.8 0.0
22/01:00am 9.6 7.9 7.5 87 1.0 SSW 6 7 3 4 1010.3 1010.1 0.0
22/12:30am 10.2 9.6 7.3 82 1.4 CALM 0 2 0 1 1010.5 1010.3 0.0
22/12:00am 11.6 9.5 8.4 81 1.6 SW 9 11 5 6 1010.9 1010.7 0.0
 
Date/Time
CDT
Temp
°C
App
Temp
°C
Dew
Point
°C
Rel
Hum
%
Delta-T
°C
Wind Press
QNH
hPa
Press
MSL
hPa
Rain since
9am
mm
Dir  Spd
km/h
Gust
km/h
Spd
kts
Gust
kts
21/11:30pm 11.9 9.7 8.0 77 1.9 SW 9 11 5 6 1011.0 1010.8 0.0
21/11:00pm 13.0 10.5 8.2 72 2.4 SW 11 13 6 7 1011.0 1010.8 0.0
21/10:30pm 13.9 11.4 8.3 69 2.8 SSW 11 13 6 7 1011.1 1010.9 0.0
21/10:00pm 15.3 11.9 7.7 60 3.8 SW 15 17 8 9 1011.1 1010.9 0.0
21/09:30pm 16.3 13.3 7.5 56 4.4 SSW 13 15 7 8 1010.8 1010.6 0.0
21/09:00pm 18.2 15.9 7.6 50 5.4 SSW 9 11 5 6 1010.4 1010.2 0.0
21/08:30pm 20.3 17.5 7.0 42 6.8 SW 11 13 6 7 1010.4 1010.2 0.0

Other formats

Comma delimited format used in spreadsheet applications
http://www.bom.gov.au/fwo/IDS60801/IDS60801.94817.axf

JavaScript Object Notation format (JSON) in row-major order
http://www.bom.gov.au/fwo/IDS60801/IDS60801.94817.json

Data quality

Most of these data are generated automatically and are frequently updated. Quality checks on data are not normally performed. It is possible for incorrect values to appear. Refer to information at About Latest Weather Observations and please check the disclaimer before using these data.